createdAt,value
2022-12-15T00:01:49.588Z,88.93
2022-12-15T00:04:34.585Z,90.39
2022-12-15T00:07:19.806Z,89.23
2022-12-15T00:10:04.690Z,88.08
2022-12-15T00:12:50.104Z,87.40
2022-12-15T00:15:35.489Z,86.72
2022-12-15T00:18:24.939Z,86.72
2022-12-15T00:21:10.304Z,87.04
2022-12-15T00:23:55.009Z,87.67
2022-12-15T00:26:39.849Z,86.50
2022-12-15T00:29:25.347Z,87.40
2022-12-15T00:32:10.155Z,89.34
2022-12-15T00:34:55.049Z,89.71
2022-12-15T00:37:39.886Z,90.80
2022-12-15T00:40:06.968Z,89.91
2022-12-15T00:42:33.495Z,90.35
2022-12-15T00:44:59.952Z,89.56
2022-12-15T00:47:26.499Z,88.59
2022-12-15T00:50:11.294Z,87.46
2022-12-15T00:52:56.712Z,87.29
2022-12-15T00:55:41.581Z,86.62
2022-12-15T00:58:26.576Z,86.87
2022-12-15T01:01:11.463Z,86.66
2022-12-15T01:03:56.552Z,86.29
2022-12-15T01:06:42.200Z,85.86
2022-12-15T01:09:29.169Z,85.63
2022-12-15T01:12:14.119Z,87.12
2022-12-15T01:14:59.424Z,90.51
2022-12-15T01:17:44.930Z,91.79
2022-12-15T01:20:32.752Z,92.38
2022-12-15T01:22:59.527Z,92.74
2022-12-15T01:25:27.537Z,92.26
2022-12-15T01:27:54.282Z,91.04
2022-12-15T01:30:24.402Z,92.18
2022-12-15T01:32:51.972Z,92.10
2022-12-15T01:35:19.055Z,91.79
2022-12-15T01:37:46.255Z,91.46
2022-12-15T01:40:45.708Z,90.97
2022-12-15T01:43:27.538Z,90.84
2022-12-15T01:45:56.531Z,90.99
2022-12-15T01:48:28.246Z,91.05
2022-12-15T01:51:01.406Z,92.27
2022-12-15T01:53:30.641Z,92.01
2022-12-15T01:55:57.647Z,91.72
2022-12-15T01:58:24.170Z,91.78
2022-12-15T02:00:50.643Z,90.45
2022-12-15T02:03:18.659Z,91.26
2022-12-15T02:05:46.964Z,91.68
2022-12-15T02:08:13.770Z,92.02
2022-12-15T02:11:15.330Z,92.41
2022-12-15T02:13:57.126Z,92.60
2022-12-15T02:16:36.343Z,92.49
2022-12-15T02:19:05.597Z,92.46
2022-12-15T02:22:02.570Z,92.96
2022-12-15T02:25:10.358Z,92.61
2022-12-15T02:27:59.210Z,92.71
2022-12-15T02:30:35.422Z,92.83
2022-12-15T02:33:23.966Z,93.04
2022-12-15T02:36:01.827Z,93.42
2022-12-15T02:38:37.659Z,93.89
2022-12-15T02:41:06.326Z,94.30
2022-12-15T02:43:37.029Z,94.38
2022-12-15T02:46:14.630Z,93.75
2022-12-15T02:49:28.164Z,93.56
2022-12-15T02:52:32.231Z,93.55
2022-12-15T02:55:13.328Z,93.45
2022-12-15T02:57:59.427Z,94.24
2022-12-15T03:00:28.270Z,94.29
2022-12-15T03:02:55.895Z,94.61
2022-12-15T03:05:24.887Z,94.85
2022-12-15T03:07:54.159Z,94.80
2022-12-15T03:10:23.568Z,94.66
2022-12-15T03:12:52.804Z,94.63
2022-12-15T03:15:19.421Z,94.59
2022-12-15T03:17:46.071Z,94.52
2022-12-15T03:20:12.652Z,93.57
2022-12-15T03:22:39.457Z,92.82
2022-12-15T03:25:06.177Z,91.67
2022-12-15T03:27:32.708Z,90.77
2022-12-15T03:29:59.125Z,90.60
2022-12-15T03:32:25.627Z,89.92
2022-12-15T03:34:52.074Z,89.00
2022-12-15T03:37:18.506Z,89.19
2022-12-15T03:39:44.949Z,89.09
2022-12-15T03:42:11.387Z,89.10
2022-12-15T03:44:37.890Z,89.36
2022-12-15T03:47:04.436Z,89.15
2022-12-15T03:49:30.843Z,89.56
2022-12-15T03:51:57.340Z,90.40
2022-12-15T03:54:23.776Z,90.36
2022-12-15T03:56:50.270Z,89.04
2022-12-15T03:59:16.799Z,88.87
2022-12-15T04:01:49.203Z,88.54
2022-12-15T04:04:15.973Z,87.88
2022-12-15T04:06:42.411Z,87.82
2022-12-15T04:09:09.009Z,88.38
2022-12-15T04:11:35.819Z,88.24
2022-12-15T04:14:02.326Z,87.68
2022-12-15T04:16:29.537Z,88.21
2022-12-15T04:19:14.708Z,88.81
2022-12-15T04:21:41.163Z,90.21
2022-12-15T04:24:26.339Z,90.53
2022-12-15T04:27:11.355Z,90.61
2022-12-15T04:29:56.215Z,91.35
2022-12-15T04:32:42.233Z,90.78
2022-12-15T04:35:28.056Z,90.28
2022-12-15T04:38:13.792Z,89.97
2022-12-15T04:40:59.258Z,89.19
2022-12-15T04:43:44.577Z,89.16
2022-12-15T04:46:29.689Z,89.41
2022-12-15T04:49:14.934Z,89.14
2022-12-15T04:52:00.091Z,88.53
2022-12-15T04:54:45.049Z,88.47
2022-12-15T04:57:29.838Z,88.36
2022-12-15T05:00:14.732Z,88.79
2022-12-15T05:02:59.494Z,88.89
2022-12-15T05:05:44.377Z,89.02
2022-12-15T05:08:29.237Z,89.18
2022-12-15T05:11:14.112Z,89.03
2022-12-15T05:13:58.938Z,91.12
2022-12-15T05:16:43.809Z,91.37
2022-12-15T05:19:28.973Z,90.53
2022-12-15T05:22:14.379Z,90.27
2022-12-15T05:24:59.207Z,90.09
2022-12-15T05:27:44.077Z,89.24
2022-12-15T05:30:29.363Z,88.64
2022-12-15T05:32:55.831Z,88.88
2022-12-15T05:35:22.278Z,89.17
2022-12-15T05:37:48.777Z,88.42
2022-12-15T05:40:15.323Z,87.73
2022-12-15T05:42:41.740Z,87.89
2022-12-15T05:45:10.098Z,87.92
2022-12-15T05:47:36.606Z,87.86
2022-12-15T05:50:03.786Z,87.12
2022-12-15T05:52:30.338Z,87.67
2022-12-15T05:54:56.781Z,87.83
2022-12-15T05:57:23.269Z,87.83
2022-12-15T05:59:49.714Z,87.92
2022-12-15T06:02:16.224Z,87.68
2022-12-15T06:04:42.811Z,87.94
2022-12-15T06:07:09.325Z,88.26
2022-12-15T06:09:35.761Z,88.45
2022-12-15T06:12:02.250Z,87.62
2022-12-15T06:14:28.707Z,87.82
2022-12-15T06:16:55.868Z,88.12
2022-12-15T06:19:22.508Z,88.47
2022-12-15T06:21:49.042Z,88.12
2022-12-15T06:24:15.600Z,88.20
2022-12-15T06:26:42.118Z,88.71
2022-12-15T06:29:11.306Z,88.41
2022-12-15T06:31:39.019Z,88.34
2022-12-15T06:34:08.295Z,88.94
2022-12-15T06:36:35.262Z,89.78
2022-12-15T06:39:04.273Z,89.13
2022-12-15T06:41:31.444Z,89.30
2022-12-15T06:43:58.947Z,89.36
2022-12-15T06:46:27.963Z,88.37
2022-12-15T06:48:54.573Z,88.92
2022-12-15T06:51:22.312Z,88.38
2022-12-15T06:53:49.178Z,88.83
2022-12-15T06:56:33.073Z,90.57
2022-12-15T06:59:01.784Z,91.31
2022-12-15T07:01:28.927Z,91.95
2022-12-15T07:03:55.812Z,92.05
2022-12-15T07:06:23.070Z,93.23
2022-12-15T07:08:52.481Z,92.22
2022-12-15T07:11:21.049Z,91.43
2022-12-15T07:13:53.048Z,91.32
2022-12-15T07:16:21.467Z,90.45
2022-12-15T07:18:48.354Z,90.13
2022-12-15T07:21:15.068Z,89.12
2022-12-15T07:23:57.828Z,88.75
2022-12-15T07:26:25.125Z,88.50
2022-12-15T07:28:53.401Z,89.24
2022-12-15T07:31:20.695Z,88.89
2022-12-15T07:33:48.337Z,88.82
2022-12-15T07:36:15.423Z,88.86
2022-12-15T07:38:41.914Z,89.09
2022-12-15T07:41:09.860Z,88.47
2022-12-15T07:43:37.455Z,88.60
2022-12-15T07:46:05.216Z,88.63
2022-12-15T07:48:32.898Z,87.95
2022-12-15T07:51:08.424Z,88.54
2022-12-15T07:53:37.829Z,88.08
2022-12-15T07:56:08.462Z,88.43
2022-12-15T07:58:36.285Z,89.17
2022-12-15T08:01:05.288Z,88.57
2022-12-15T08:03:32.576Z,88.58
2022-12-15T08:06:04.421Z,88.57
2022-12-15T08:08:32.212Z,88.72
2022-12-15T08:10:58.924Z,88.36
2022-12-15T08:14:00.888Z,88.48
2022-12-15T08:16:12.782Z,88.31
2022-12-15T08:18:39.664Z,88.45
2022-12-15T08:21:08.330Z,88.33
2022-12-15T08:23:35.972Z,88.64
2022-12-15T08:26:07.968Z,88.94
2022-12-15T08:28:35.559Z,89.31
2022-12-15T08:31:07.731Z,89.70
2022-12-15T08:33:34.828Z,91.20
2022-12-15T08:36:03.956Z,92.00
2022-12-15T08:38:31.677Z,93.05
2022-12-15T08:40:58.774Z,95.08
2022-12-15T08:43:25.222Z,95.49
2022-12-15T08:45:51.824Z,95.27
2022-12-15T08:48:18.540Z,95.69
2022-12-15T08:50:45.774Z,94.58
2022-12-15T08:56:06.913Z,95.16
2022-12-15T08:58:34.192Z,95.51
2022-12-15T09:01:17.460Z,95.48
2022-12-15T09:03:50.338Z,95.70
2022-12-15T09:06:20.764Z,95.39
2022-12-15T09:08:50.134Z,95.47
2022-12-15T09:11:17.754Z,94.97
2022-12-15T09:13:44.501Z,95.57
2022-12-15T09:16:14.769Z,95.54
2022-12-15T09:18:46.648Z,95.93
2022-12-15T09:21:15.365Z,96.50
2022-12-15T09:23:42.563Z,96.81
2022-12-15T09:26:14.354Z,96.76
2022-12-15T09:28:42.818Z,96.85
2022-12-15T09:31:21.922Z,96.62
2022-12-15T09:33:51.082Z,96.70
2022-12-15T09:36:17.551Z,96.85
2022-12-15T09:38:44.776Z,96.42
2022-12-15T09:41:14.959Z,96.09
2022-12-15T09:43:58.563Z,96.76
2022-12-15T09:46:37.474Z,97.10
2022-12-15T09:49:29.189Z,97.54
2022-12-15T09:52:17.963Z,98.23
2022-12-15T09:54:46.175Z,98.26
2022-12-15T09:57:35.665Z,98.89
2022-12-15T10:00:14.500Z,98.77
2022-12-15T10:03:08.423Z,98.47
2022-12-15T10:06:18.102Z,98.74
2022-12-15T10:08:55.926Z,98.22
2022-12-15T10:11:43.864Z,98.22
2022-12-15T10:14:35.162Z,98.57
2022-12-15T10:17:13.960Z,98.18
2022-12-15T10:19:49.976Z,98.76
2022-12-15T10:22:23.811Z,98.47
2022-12-15T10:28:18.311Z,97.95
2022-12-15T10:31:07.983Z,97.92
2022-12-15T10:36:32.079Z,97.22
2022-12-15T10:38:58.584Z,97.56
2022-12-15T10:41:28.408Z,97.32
2022-12-15T10:43:55.034Z,97.11
2022-12-15T10:46:27.079Z,96.78
2022-12-15T10:48:59.923Z,97.10
2022-12-15T10:51:51.027Z,96.92
2022-12-15T10:54:18.822Z,96.56
2022-12-15T10:57:16.663Z,96.05
2022-12-15T10:59:43.442Z,95.85
2022-12-15T11:02:37.066Z,95.79
2022-12-15T11:05:15.609Z,95.88
2022-12-15T11:07:44.240Z,96.15
2022-12-15T11:10:20.004Z,95.86
2022-12-15T11:13:16.123Z,95.91
2022-12-15T11:18:53.431Z,95.84
2022-12-15T11:21:26.482Z,96.54
2022-12-15T11:24:01.705Z,96.83
2022-12-15T11:26:50.121Z,96.59
2022-12-15T11:29:23.339Z,96.34
2022-12-15T11:31:51.716Z,96.82
2022-12-15T11:34:21.587Z,96.25
2022-12-15T11:37:00.054Z,95.87
2022-12-15T11:39:56.873Z,94.95
2022-12-15T11:42:42.286Z,94.95
2022-12-15T11:45:23.726Z,94.93
2022-12-15T11:47:58.535Z,94.46
2022-12-15T11:50:42.650Z,93.39
2022-12-15T11:53:30.893Z,91.05
2022-12-15T11:56:09.955Z,90.31
2022-12-15T11:59:04.790Z,89.86
2022-12-15T12:02:03.192Z,89.54
2022-12-15T12:04:52.056Z,88.76
2022-12-15T12:07:41.688Z,87.65
2022-12-15T12:11:03.075Z,86.66
2022-12-15T12:13:42.444Z,86.02
2022-12-15T12:16:31.986Z,86.39
2022-12-15T12:19:10.183Z,87.31
2022-12-15T12:21:51.124Z,87.64
2022-12-15T12:24:29.968Z,86.07
2022-12-15T12:26:59.087Z,85.14
2022-12-15T12:29:37.943Z,84.63
2022-12-15T12:32:17.045Z,84.38
2022-12-15T12:35:32.363Z,85.27
2022-12-15T12:37:56.873Z,85.00
2022-12-15T12:40:47.819Z,85.74
2022-12-15T12:43:41.389Z,85.46
2022-12-15T12:46:22.691Z,85.19
2022-12-15T12:48:56.200Z,85.62
2022-12-15T12:51:37.883Z,85.18
2022-12-15T12:54:36.626Z,85.37
2022-12-15T12:57:12.313Z,85.96
2022-12-15T13:00:14.286Z,84.81
2022-12-15T13:02:47.757Z,86.03
2022-12-15T13:05:28.494Z,85.71
2022-12-15T13:07:56.938Z,85.75
2022-12-15T13:10:25.227Z,85.97
2022-12-15T13:12:59.707Z,85.97
2022-12-15T13:15:39.618Z,87.61
2022-12-15T13:18:16.775Z,88.12
2022-12-15T13:20:45.158Z,88.43
2022-12-15T13:23:21.753Z,88.26
2022-12-15T13:25:56.964Z,87.64
2022-12-15T13:28:40.510Z,87.55
2022-12-15T13:31:16.559Z,87.38
2022-12-15T13:34:12.340Z,87.56
2022-12-15T13:36:41.779Z,87.58
2022-12-15T13:39:11.393Z,88.29
2022-12-15T13:42:15.327Z,88.58
2022-12-15T13:44:41.281Z,88.42
2022-12-15T13:47:12.461Z,87.85
2022-12-15T13:49:49.413Z,87.35
2022-12-15T13:53:08.727Z,87.70
2022-12-15T13:55:28.289Z,87.90
2022-12-15T13:58:00.294Z,87.03
2022-12-15T14:00:26.822Z,86.48
2022-12-15T14:03:07.562Z,86.19
2022-12-15T14:05:34.393Z,86.45
2022-12-15T14:08:03.447Z,86.89
2022-12-15T14:10:41.774Z,86.14
2022-12-15T14:13:20.319Z,85.34
2022-12-15T14:15:55.864Z,85.19
2022-12-15T14:21:20.128Z,85.89
2022-12-15T14:24:11.476Z,86.67
2022-12-15T14:26:33.316Z,86.70
2022-12-15T14:29:03.337Z,86.72
2022-12-15T14:31:30.903Z,86.22
2022-12-15T14:34:06.288Z,86.81
2022-12-15T14:36:33.192Z,87.22
2022-12-15T14:39:01.441Z,87.57
2022-12-15T14:41:31.736Z,87.46
2022-12-15T14:44:31.797Z,88.02
2022-12-15T14:47:05.825Z,88.35
2022-12-15T14:49:43.565Z,88.24
2022-12-15T14:52:23.191Z,89.13
2022-12-15T14:54:53.311Z,89.86
2022-12-15T14:57:37.987Z,90.22
2022-12-15T15:00:26.116Z,91.15
2022-12-15T15:03:04.701Z,95.99
2022-12-15T15:03:12.192Z,97.60
2022-12-15T15:03:17.231Z,90.98
2022-12-15T15:05:47.522Z,90.48
2022-12-15T15:08:19.317Z,90.67
2022-12-15T15:10:45.926Z,90.16
2022-12-15T15:13:19.119Z,90.17
2022-12-15T15:15:53.362Z,90.67
2022-12-15T15:18:26.363Z,90.46
2022-12-15T15:21:00.302Z,90.91
2022-12-15T15:23:26.811Z,90.70
2022-12-15T15:26:05.847Z,91.08
2022-12-15T15:28:41.309Z,91.23
2022-12-15T15:31:40.814Z,91.47
2022-12-15T15:34:08.542Z,91.35
2022-12-15T15:36:37.856Z,91.56
2022-12-15T15:39:12.070Z,91.99
2022-12-15T15:41:38.642Z,92.21
2022-12-15T15:44:12.666Z,91.69
2022-12-15T15:46:52.435Z,91.34
2022-12-15T15:49:21.677Z,91.51
2022-12-15T15:51:48.989Z,90.48
2022-12-15T15:54:19.078Z,89.91
2022-12-15T15:56:45.576Z,89.75
2022-12-15T15:59:16.812Z,89.40
2022-12-15T16:01:44.090Z,89.25
2022-12-15T16:04:10.766Z,89.83
2022-12-15T16:06:40.836Z,89.80
2022-12-15T16:09:14.709Z,89.98
2022-12-15T16:11:41.206Z,90.55
2022-12-15T16:14:15.418Z,91.42
2022-12-15T16:16:42.052Z,91.23
2022-12-15T16:19:09.161Z,90.98
2022-12-15T16:21:36.172Z,90.51
2022-12-15T16:24:09.983Z,89.83
2022-12-15T16:26:38.886Z,89.29
2022-12-15T16:29:15.326Z,89.09
2022-12-15T16:31:45.431Z,88.66
2022-12-15T16:34:19.421Z,88.58
2022-12-15T16:36:46.184Z,88.54
2022-12-15T16:39:20.732Z,88.36
2022-12-15T16:41:47.173Z,88.74
2022-12-15T16:44:14.215Z,88.71
2022-12-15T16:46:40.766Z,88.72
2022-12-15T16:49:07.280Z,88.78
2022-12-15T16:51:38.832Z,88.23
2022-12-15T16:54:06.023Z,88.40
2022-12-15T16:56:33.033Z,88.12
2022-12-15T16:59:30.851Z,88.06
2022-12-15T17:01:46.130Z,87.71
2022-12-15T17:04:12.761Z,87.74
2022-12-15T17:06:39.426Z,87.75
2022-12-15T17:09:08.836Z,88.14
2022-12-15T17:11:35.567Z,88.70
2022-12-15T17:14:02.046Z,89.16
2022-12-15T17:16:29.675Z,89.57
2022-12-15T17:18:56.244Z,90.04
2022-12-15T17:21:29.706Z,91.19
2022-12-15T17:23:59.714Z,91.12
2022-12-15T17:26:32.045Z,91.29
2022-12-15T17:29:01.563Z,90.97
2022-12-15T17:31:34.776Z,90.91
2022-12-15T17:34:22.291Z,90.58
2022-12-15T17:36:49.136Z,90.25
2022-12-15T17:39:19.191Z,90.07
2022-12-15T17:42:02.317Z,89.81
2022-12-15T17:44:34.376Z,89.81
2022-12-15T17:47:03.852Z,89.77
2022-12-15T17:49:35.628Z,89.83
2022-12-15T17:52:07.352Z,89.66
2022-12-15T17:54:34.043Z,89.79
2022-12-15T17:57:00.497Z,89.59
2022-12-15T17:59:27.142Z,88.82
2022-12-15T18:01:57.080Z,88.83
2022-12-15T18:04:23.950Z,88.55
2022-12-15T18:06:52.009Z,89.02
2022-12-15T18:09:22.345Z,88.67
2022-12-15T18:11:49.616Z,88.37
2022-12-15T18:14:18.466Z,88.72
2022-12-15T18:16:46.180Z,89.04
2022-12-15T18:19:13.314Z,88.56
2022-12-15T18:21:45.713Z,89.13
2022-12-15T18:24:13.784Z,89.75
2022-12-15T18:26:40.443Z,92.65
2022-12-15T18:29:13.220Z,93.06
2022-12-15T18:31:40.816Z,92.95
2022-12-15T18:34:12.821Z,92.09
2022-12-15T18:36:40.016Z,91.35
2022-12-15T18:39:18.640Z,91.20
2022-12-15T18:41:45.658Z,90.84
2022-12-15T18:44:23.491Z,90.17
2022-12-15T18:46:50.080Z,90.29
2022-12-15T18:49:17.836Z,90.28
2022-12-15T18:51:45.411Z,90.84
2022-12-15T18:54:18.118Z,91.14
2022-12-15T18:56:44.988Z,92.22
2022-12-15T18:59:16.695Z,92.58
2022-12-15T19:01:45.922Z,92.30
2022-12-15T19:04:13.453Z,91.72
2022-12-15T19:06:40.885Z,91.19
2022-12-15T19:09:27.699Z,91.69
2022-12-15T19:12:17.100Z,91.14
2022-12-15T19:14:45.364Z,90.94
2022-12-15T19:17:33.764Z,90.56
2022-12-15T19:20:20.218Z,89.58
2022-12-15T19:22:48.495Z,89.58
2022-12-15T19:25:26.098Z,90.22
2022-12-15T19:27:58.572Z,92.08
2022-12-15T19:30:27.693Z,92.69
2022-12-15T19:32:54.293Z,92.71
2022-12-15T19:35:21.485Z,92.06
2022-12-15T19:37:49.893Z,91.85
2022-12-15T19:40:22.792Z,91.87
2022-12-15T19:42:50.231Z,92.31
2022-12-15T19:45:19.210Z,92.13
2022-12-15T19:47:45.688Z,91.77
2022-12-15T19:50:21.011Z,91.34
2022-12-15T19:52:50.839Z,91.03
2022-12-15T19:55:20.827Z,90.77
2022-12-15T19:57:47.276Z,90.67
2022-12-15T20:00:15.599Z,90.08
2022-12-15T20:02:42.411Z,90.08
2022-12-15T20:05:09.078Z,89.83
2022-12-15T20:07:35.668Z,88.97
2022-12-15T20:10:05.287Z,89.29
2022-12-15T20:12:31.806Z,89.32
2022-12-15T20:14:58.249Z,89.53
2022-12-15T20:17:24.825Z,88.71
2022-12-15T20:19:51.286Z,89.07
2022-12-15T20:22:19.395Z,88.81
2022-12-15T20:24:46.976Z,88.63
2022-12-15T20:27:15.677Z,88.58
2022-12-15T20:29:42.689Z,88.33
2022-12-15T20:32:18.548Z,88.20
2022-12-15T20:34:45.542Z,88.38
2022-12-15T20:37:25.548Z,88.78
2022-12-15T20:39:57.131Z,89.04
2022-12-15T20:42:24.663Z,88.54
2022-12-15T20:44:51.513Z,88.48
2022-12-15T20:47:26.050Z,88.61
2022-12-15T20:49:54.283Z,89.02
2022-12-15T20:52:23.717Z,88.47
2022-12-15T20:54:51.076Z,88.77
2022-12-15T20:57:17.805Z,88.31
2022-12-15T20:59:44.758Z,88.42
2022-12-15T21:02:19.424Z,88.18
2022-12-15T21:04:46.461Z,88.41
2022-12-15T21:07:13.282Z,88.11
2022-12-15T21:09:40.050Z,87.65
2022-12-15T21:12:27.530Z,87.76
2022-12-15T21:14:54.852Z,88.78
2022-12-15T21:17:25.731Z,89.03
2022-12-15T21:19:52.837Z,88.75
2022-12-15T21:22:26.436Z,88.81
2022-12-15T21:24:56.804Z,89.06
2022-12-15T21:27:23.179Z,88.82
2022-12-15T21:29:52.620Z,88.95
2022-12-15T21:32:20.107Z,89.27
2022-12-15T21:34:46.726Z,90.50
2022-12-15T21:37:19.124Z,93.93
2022-12-15T21:39:45.639Z,93.01
2022-12-15T21:42:15.970Z,92.03
2022-12-15T21:44:42.867Z,91.68
2022-12-15T21:47:51.876Z,90.98
2022-12-15T21:50:19.281Z,90.06
2022-12-15T21:52:47.428Z,89.38
2022-12-15T21:55:14.689Z,88.92
2022-12-15T21:57:41.197Z,89.20
2022-12-15T22:00:13.458Z,88.99
2022-12-15T22:02:40.650Z,89.17
2022-12-15T22:05:24.663Z,88.46
2022-12-15T22:07:51.579Z,88.49
2022-12-15T22:10:18.480Z,87.95
2022-12-15T22:12:55.898Z,87.71
2022-12-15T22:15:26.170Z,87.87
2022-12-15T22:17:52.729Z,87.72
2022-12-15T22:20:23.153Z,88.37
2022-12-15T22:22:50.677Z,88.38
2022-12-15T22:25:20.465Z,88.53
2022-12-15T22:27:47.332Z,88.89
2022-12-15T22:30:16.318Z,88.37
2022-12-15T22:32:42.820Z,88.49
2022-12-15T22:35:27.438Z,88.04
2022-12-15T22:37:54.055Z,88.49
2022-12-15T22:40:23.300Z,89.14
2022-12-15T22:42:55.118Z,88.77
2022-12-15T22:45:23.942Z,88.72
2022-12-15T22:47:52.359Z,89.21
2022-12-15T22:50:23.400Z,88.89
2022-12-15T22:52:50.305Z,88.84
2022-12-15T22:55:20.385Z,88.54
2022-12-15T22:57:53.207Z,88.74
2022-12-15T23:00:19.645Z,88.28
2022-12-15T23:02:47.233Z,88.56
2022-12-15T23:05:15.955Z,88.80
2022-12-15T23:07:43.812Z,87.93
2022-12-15T23:10:34.681Z,88.03
2022-12-15T23:13:01.114Z,88.50
2022-12-15T23:15:47.259Z,89.00
2022-12-15T23:18:14.172Z,88.50
2022-12-15T23:20:40.742Z,88.54
2022-12-15T23:23:08.677Z,88.52
2022-12-15T23:25:35.275Z,89.04
2022-12-15T23:28:01.753Z,89.18
2022-12-15T23:30:28.168Z,89.86
2022-12-15T23:32:55.226Z,89.85
2022-12-15T23:35:22.088Z,89.72
2022-12-15T23:37:48.534Z,89.94
2022-12-15T23:40:21.144Z,90.05
2022-12-15T23:42:51.593Z,90.19
2022-12-15T23:45:18.830Z,90.52
2022-12-15T23:47:45.411Z,89.90
2022-12-15T23:50:11.918Z,89.56
2022-12-15T23:52:38.754Z,89.06
2022-12-15T23:55:07.948Z,89.06
2022-12-15T23:57:34.871Z,89.16
